YMHB Airport Information

Runway Information
Runway 12 Length 7385 ft width 148 ft Elevation 12 ft Threshold N/A Heading 135
Runway 30 Length 7385 ft Width 148 ft Elevation 13 ft Threshold N/A Heading 315
Airport Frequencies
Type ATIS Name ATIS Frequency 112.7 MHZ
Type CTAF Name CTAF Frequency 118.1 MHZ
Type FSS Name MELBOURNE Frequency 125.55 MHZ
Type TWR Name TWR Frequency 118.1 MHZ
Airport Navaids
Type VOR-DME Name Hobart Frequency 112700 KHZ
Type NDB Name Hobart Frequency 362 KHZ
Type NDB Name Tea Tree Frequency 374 KHZ
Airport Weather Information & NOTAM
ADDS - METARS form results

(1717 UTC 02 December 2022)
Data provider http://aviationweather.gov/metar/data/
 
METAR text: YMHB 021700Z AUTO 00000KT 9999 // NCD 09/09 Q1014 RF00.0/000.0
Conditions at: YMHB (HOBART/TASMANIA , AU) observed 1700 UTC 02 December 2022
Temperature: 9.0°C (48°F)
Dewpoint: 9.0°C (48°F) [RH = 100%]
Pressure (altimeter): 29.94 inches Hg (1014.0 mb)
Winds: calm
Visibility: 6 or more miles (10+ km)
Ceiling: at least 12,000 feet AGL
Clouds: sky clear below 12,000 feet AGL
Weather: no significant weather observed at this time

METAR text: YMHB 021630Z AUTO 31004KT 9999 // NCD 10/09 Q1014 RF00.0/000.0
Conditions at: YMHB (HOBART/TASMANIA , AU) observed 1630 UTC 02 December 2022
Temperature: 10.0°C (50°F)
Dewpoint: 9.0°C (48°F) [RH = 93%]
Pressure (altimeter): 29.94 inches Hg (1014.0 mb)
Winds: from the NW (310 degrees) at 5 MPH (4 knots; 2.1 m/s)
Visibility: 6 or more miles (10+ km)
Ceiling: at least 12,000 feet AGL
Clouds: sky clear below 12,000 feet AGL
Weather: no significant weather observed at this time

Forecast for: YMHB (HOBART/TASMANIA , AU)
Text: TAF YMHB 021404Z 0215/0312 32008KT CAVOK
Forecast period: 1500 UTC 02 December 2022 to 0400 UTC 03 December 2022
Forecast type: FROM: standard forecast or significant change
Winds: from the NW (320 degrees) at 9 MPH (8 knots; 4.1 m/s)
Visibility: 6 or more miles (10+ km)
Ceiling: unknown
Clouds: missing
Weather: NSW  (no significant weather)
Text: FM030400 16012KT CAVOK
Forecast period: 0400 to 1000 UTC 03 December 2022
Forecast type: FROM: standard forecast or significant change
Winds: from the SSE (160 degrees) at 14 MPH (12 knots; 6.2 m/s)
Visibility: 6 or more miles (10+ km)
Ceiling: unknown
Clouds: missing
Weather: NSW  (no significant weather)
Text: FM031000 18008KT 9999 BKN006
Forecast period: 1000 to 1200 UTC 03 December 2022
Forecast type: FROM: standard forecast or significant change
Winds: from the S (180 degrees) at 9 MPH (8 knots; 4.1 m/s)
Visibility: 6 or more miles (10+ km)
Ceiling: 600 feet AGL
Clouds: broken clouds at 600 feet AGL
Weather: no significant weather forecast for this period